Time;durP1;ratioP1;P1;durP2;ratioP2;P2;SDS_P1;SDS_P2;PMS_P1;PMS_P2;Temp;Humidity;BMP_temperature;BMP_pressure;BME280_temperature;BME280_humidity;BME280_pressure;Samples;Min_cycle;Max_cycle;Signal;HPM_P1;HPM_P2
2020/12/19 00:00:52;;;;;;;21.60;16.62;;;;;;;2.15;88.91;100092.38;1782130;79;21521;-70
2020/12/19 00:03:20;;;;;;;24.18;17.10;;;;;;;2.15;88.91;100091.07;1782101;79;21536;-70
2020/12/19 00:05:49;;;;;;;22.98;15.90;;;;;;;2.15;88.92;100089.77;1782141;79;21371;-70
2020/12/19 00:08:19;;;;;;;20.88;13.38;;;;;;;2.15;88.92;100096.69;1782151;79;21179;-70
2020/12/19 00:10:48;;;;;;;21.40;13.35;;;;;;;2.15;88.94;100094.97;1804806;78;21203;-70
2020/12/19 00:13:18;;;;;;;20.80;14.60;;;;;;;2.17;88.94;100105.04;1796415;79;21049;-70
2020/12/19 00:15:48;;;;;;;19.52;13.72;;;;;;;2.17;88.97;100096.34;1803713;79;21449;-70
2020/12/19 00:18:18;;;;;;;20.80;14.35;;;;;;;2.15;88.98;100101.48;1801212;79;22371;-70
2020/12/19 00:20:47;;;;;;;23.35;13.90;;;;;;;2.15;88.96;100100.59;1785123;79;20944;-71
2020/12/19 00:23:16;;;;;;;18.80;13.10;;;;;;;2.14;89.00;100095.80;1773762;81;21525;-71
2020/12/19 00:25:44;;;;;;;22.30;13.50;;;;;;;2.17;89.03;100099.83;1773855;80;21561;-70
2020/12/19 00:28:12;;;;;;;17.67;12.78;;;;;;;2.18;89.05;100099.42;1773963;80;21442;-70
2020/12/19 00:30:41;;;;;;;21.87;13.72;;;;;;;2.18;89.04;100100.72;1774615;79;22098;-71
2020/12/19 00:33:10;;;;;;;18.73;13.30;;;;;;;2.17;89.05;100099.83;1750540;81;21080;-71
2020/12/19 00:35:38;;;;;;;20.30;13.03;;;;;;;2.19;89.08;100097.30;1773955;80;21075;-71
2020/12/19 00:38:07;;;;;;;18.70;13.50;;;;;;;2.22;89.07;100102.63;1773750;80;21194;-71
2020/12/19 00:40:36;;;;;;;21.55;13.78;;;;;;;2.24;89.07;100100.09;1773979;79;21154;-71
2020/12/19 00:43:06;;;;;;;22.20;13.70;;;;;;;2.24;89.07;100098.37;1773903;80;21699;-71
2020/12/19 00:45:36;;;;;;;18.15;12.30;;;;;;;2.25;89.09;100101.87;1773758;80;21174;-71
2020/12/19 00:48:05;;;;;;;19.65;13.15;;;;;;;2.26;89.10;100099.73;1773856;80;21902;-71
2020/12/19 00:50:33;;;;;;;19.82;13.13;;;;;;;2.25;89.08;100100.56;1774367;79;21478;-70
2020/12/19 00:53:02;;;;;;;22.02;13.75;;;;;;;2.25;89.13;100099.27;1773735;80;20992;-70
2020/12/19 00:55:31;;;;;;;20.08;12.37;;;;;;;2.24;89.17;100103.58;1773738;81;21347;-70
2020/12/19 00:58:02;;;;;;;19.95;12.68;;;;;;;2.25;89.21;100095.36;1774679;79;21557;-70
2020/12/19 01:00:31;;;;;;;18.52;12.85;;;;;;;2.26;89.22;100095.42;1773761;80;21003;-70
2020/12/19 01:03:01;;;;;;;19.98;12.82;;;;;;;2.30;89.21;100100.34;1773772;80;20995;-71
2020/12/19 01:05:31;;;;;;;21.25;12.95;;;;;;;2.30;89.22;100092.13;1773765;80;20976;-70
2020/12/19 01:08:00;;;;;;;22.17;13.25;;;;;;;2.31;89.22;100088.69;1782649;79;21545;-71
2020/12/19 01:10:29;;;;;;;22.30;13.70;;;;;;;2.33;89.20;100093.96;1786948;79;21564;-71
2020/12/19 01:12:57;;;;;;;24.10;15.03;;;;;;;2.35;89.20;100092.31;1787053;79;21057;-71
2020/12/19 01:15:29;;;;;;;24.15;14.63;;;;;;;2.35;89.17;100091.02;1790844;79;20970;-70
2020/12/19 01:17:58;;;;;;;25.70;15.43;;;;;;;2.35;89.17;100093.20;1805581;79;21587;-70
2020/12/19 01:20:28;;;;;;;22.17;14.35;;;;;;;2.34;89.18;100088.81;1805517;79;21378;-69
2020/12/19 01:22:56;;;;;;;22.75;14.10;;;;;;;2.34;89.20;100086.62;1805616;79;21471;-70
2020/12/19 01:25:25;;;;;;;22.45;15.15;;;;;;;2.35;89.22;100090.59;1803190;79;20938;-70
2020/12/19 01:27:54;;;;;;;23.27;14.25;;;;;;;2.35;89.24;100085.39;1799298;79;21470;-70
2020/12/19 01:30:24;;;;;;;21.07;13.20;;;;;;;2.37;89.22;100088.98;1774997;79;21469;-70
2020/12/19 01:32:53;;;;;;;22.32;13.75;;;;;;;2.37;89.23;100093.30;1773705;80;22534;-70
2020/12/19 01:35:24;;;;;;;25.20;15.08;;;;;;;2.36;89.23;100084.98;1773932;80;21485;-70
2020/12/19 01:37:53;;;;;;;24.47;15.55;;;;;;;2.38;89.21;100088.16;1798134;79;21480;-70
2020/12/19 01:40:21;;;;;;;23.75;14.35;;;;;;;2.38;89.20;100090.76;1805535;79;21516;-70
2020/12/19 01:43:00;;;;;;;24.05;15.38;;;;;;;2.42;89.21;100091.36;1837238;78;23299;-70
2020/12/19 01:45:32;;;;;;;25.70;15.40;;;;;;;2.39;89.22;100092.95;1779560;78;21045;-70
2020/12/19 01:48:03;;;;;;;23.15;14.23;;;;;;;2.40;89.20;100096.03;1808687;79;22881;-70
2020/12/19 01:50:37;;;;;;;23.27;13.83;;;;;;;2.40;89.16;100098.22;1809368;78;20970;-70
2020/12/19 01:53:05;;;;;;;22.17;14.70;;;;;;;2.38;89.08;100103.77;1809383;78;20958;-70
2020/12/19 01:55:35;;;;;;;24.05;14.23;;;;;;;2.36;89.06;100096.70;1778389;79;21540;-69
2020/12/19 01:58:05;;;;;;;21.77;13.28;;;;;;;2.35;88.99;100101.02;1809452;78;20958;-69
2020/12/19 02:00:39;;;;;;;22.98;13.90;;;;;;;2.34;88.98;100099.23;1809410;78;22616;-69
2020/12/19 02:03:14;;;;;;;23.27;14.20;;;;;;;2.32;88.94;100095.68;1778946;79;20938;-68
2020/12/19 02:05:45;;;;;;;22.35;13.98;;;;;;;2.33;88.89;100103.97;1808432;79;20955;-70
2020/12/19 02:08:13;;;;;;;23.30;14.87;;;;;;;2.31;88.87;100109.52;1809560;78;20963;-70
2020/12/19 02:10:43;;;;;;;21.57;13.43;;;;;;;2.27;88.80;100108.91;1809575;78;20926;-71
2020/12/19 02:13:13;;;;;;;24.27;14.75;;;;;;;2.26;88.81;100109.74;1809683;79;21504;-70
2020/12/19 02:15:46;;;;;;;22.30;14.25;;;;;;;2.28;88.79;100112.41;1781894;78;20950;-69
2020/12/19 02:18:15;;;;;;;21.82;14.23;;;;;;;2.29;88.80;100111.59;1777782;79;20967;-70
2020/12/19 02:20:43;;;;;;;22.27;14.05;;;;;;;2.30;88.83;100111.65;1777692;79;21067;-70
2020/12/19 02:23:14;;;;;;;25.90;13.98;;;;;;;2.32;88.83;100113.91;1777706;79;20891;-70
2020/12/19 02:25:43;;;;;;;21.12;13.60;;;;;;;2.35;88.82;100114.44;1779826;78;22086;-70
2020/12/19 02:28:12;;;;;;;22.93;14.20;;;;;;;2.36;88.78;100111.91;1777671;80;20942;-70
2020/12/19 02:30:41;;;;;;;24.10;14.80;;;;;;;2.33;88.70;100113.08;1777911;79;21457;-70
2020/12/19 02:33:11;;;;;;;23.57;14.47;;;;;;;2.29;88.58;100115.08;1777701;79;20914;-69
2020/12/19 02:35:40;;;;;;;22.10;14.58;;;;;;;2.25;88.47;100110.98;1793389;78;20911;-69
2020/12/19 02:38:08;;;;;;;23.52;14.18;;;;;;;2.20;88.41;100107.77;1781236;79;22199;-68
2020/12/19 02:40:36;;;;;;;24.00;15.10;;;;;;;2.15;88.35;100105.80;1778233;79;20911;-68
2020/12/19 02:43:05;;;;;;;22.90;14.53;;;;;;;2.09;88.32;100113.34;1773710;79;21501;-69
2020/12/19 02:45:35;;;;;;;25.72;15.25;;;;;;;2.03;88.32;100106.17;1773203;81;20935;-69
2020/12/19 02:48:03;;;;;;;23.30;13.55;;;;;;;1.99;88.32;100107.27;1775398;79;21481;-70
2020/12/19 02:50:32;;;;;;;26.07;14.98;;;;;;;1.95;88.35;100110.56;1773243;79;22288;-70
2020/12/19 02:53:00;;;;;;;27.17;15.60;;;;;;;1.92;88.34;100102.63;1772901;81;20958;-69
2020/12/19 02:55:29;;;;;;;25.32;15.40;;;;;;;1.91;88.38;100115.16;1772801;79;21485;-70
2020/12/19 02:57:57;;;;;;;23.00;14.35;;;;;;;1.88;88.46;100114.17;1774922;79;21477;-69
2020/12/19 03:00:27;;;;;;;24.47;14.43;;;;;;;1.87;88.48;100115.41;1772803;80;20934;-69
2020/12/19 03:02:56;;;;;;;24.50;14.80;;;;;;;1.87;88.55;100112.80;1772609;79;21408;-69
2020/12/19 03:05:24;;;;;;;29.23;16.30;;;;;;;1.88;88.57;100119.38;1772589;81;20922;-69
2020/12/19 03:07:53;;;;;;;27.90;15.60;;;;;;;1.90;88.64;100123.38;1776550;79;20955;-69
2020/12/19 03:10:22;;;;;;;22.55;13.88;;;;;;;1.89;88.65;100120.27;1804425;78;20987;-69
2020/12/19 03:13:00;;;;;;;25.23;14.73;;;;;;;1.92;88.69;100109.13;1825123;78;21787;-69
2020/12/19 03:15:29;;;;;;;24.02;14.83;;;;;;;1.88;88.68;100119.38;1777641;79;20922;-69
2020/12/19 03:17:58;;;;;;;24.67;16.02;;;;;;;1.90;88.71;100116.88;1777531;79;22395;-69
2020/12/19 03:20:27;;;;;;;26.35;16.20;;;;;;;1.91;88.71;100116.45;1809163;79;20935;-69
2020/12/19 03:22:55;;;;;;;26.27;15.10;;;;;;;1.88;88.67;100111.56;1809554;78;20918;-70
2020/12/19 03:25:26;;;;;;;25.72;15.58;;;;;;;1.87;88.69;100116.30;1809395;79;21010;-69
2020/12/19 03:27:55;;;;;;;28.02;16.52;;;;;;;1.89;88.71;100109.48;1809361;78;20982;-69
2020/12/19 03:30:26;;;;;;;27.45;17.10;;;;;;;1.88;88.71;100116.77;1807131;78;22105;-69
2020/12/19 03:32:55;;;;;;;27.62;15.53;;;;;;;1.86;88.72;100115.81;1809382;78;21583;-69
2020/12/19 03:35:24;;;;;;;27.25;15.32;;;;;;;1.84;88.74;100108.77;1809408;79;20998;-70
2020/12/19 03:37:53;;;;;;;28.60;16.00;;;;;;;1.82;88.76;100116.91;1809390;78;21584;-69
2020/12/19 03:40:22;;;;;;;26.73;16.23;;;;;;;1.77;88.80;100118.42;1806543;79;21733;-70
2020/12/19 03:42:51;;;;;;;27.73;15.93;;;;;;;1.77;88.86;100115.41;1808814;78;22369;-69
2020/12/19 03:45:22;;;;;;;28.32;16.27;;;;;;;1.74;88.94;100115.69;1809353;78;20934;-69
2020/12/19 03:47:51;;;;;;;28.23;16.75;;;;;;;1.70;89.03;100115.97;1809409;79;20918;-69
2020/12/19 03:50:19;;;;;;;27.58;15.95;;;;;;;1.72;89.14;100109.53;1798927;78;21489;-69
2020/12/19 03:52:48;;;;;;;28.07;16.82;;;;;;;1.74;89.20;100116.99;1777509;80;20907;-68
2020/12/19 03:55:17;;;;;;;28.15;16.80;;;;;;;1.77;89.26;100118.42;1777484;80;21199;-68
2020/12/19 03:57:46;;;;;;;27.40;16.55;;;;;;;1.76;89.32;100117.53;1777558;79;21540;-68
2020/12/19 04:00:15;;;;;;;27.10;15.75;;;;;;;1.76;89.37;100118.84;1780761;79;21014;-69
2020/12/19 04:02:44;;;;;;;27.35;17.20;;;;;;;1.78;89.43;100117.19;1809156;78;21163;-69
2020/12/19 04:05:13;;;;;;;30.40;17.05;;;;;;;1.81;89.49;100112.53;1809412;78;20875;-68
2020/12/19 04:07:41;;;;;;;30.75;17.05;;;;;;;1.83;89.51;100110.89;1809407;78;21461;-68
2020/12/19 04:10:09;;;;;;;28.00;16.77;;;;;;;1.84;89.56;100108.77;1809336;79;20922;-69
2020/12/19 04:12:39;;;;;;;28.70;16.52;;;;;;;1.85;89.60;100112.73;1772075;79;20935;-69
2020/12/19 04:15:09;;;;;;;27.27;16.48;;;;;;;1.90;89.62;100115.57;1766979;79;21500;-69
2020/12/19 04:17:38;;;;;;;28.32;16.65;;;;;;;1.92;89.60;100116.94;1766859;81;21066;-69
2020/12/19 04:20:08;;;;;;;26.30;15.83;;;;;;;1.95;89.61;100113.17;1766797;80;21500;-68
2020/12/19 04:22:37;;;;;;;28.47;16.40;;;;;;;1.98;89.61;100112.89;1790732;79;20947;-69
2020/12/19 04:25:06;;;;;;;27.67;15.88;;;;;;;2.00;89.60;100112.55;1797768;79;20943;-69
2020/12/19 04:27:35;;;;;;;28.77;16.80;;;;;;;2.03;89.55;100120.89;1797508;78;21481;-69
2020/12/19 04:30:05;;;;;;;27.77;15.95;;;;;;;2.05;89.55;100115.34;1797917;78;21445;-69
2020/12/19 04:32:35;;;;;;;31.27;17.07;;;;;;;2.06;89.50;100117.12;1778851;79;21362;-69
2020/12/19 04:35:04;;;;;;;26.60;15.23;;;;;;;2.05;89.46;100116.23;1766301;81;20951;-69
2020/12/19 04:37:33;;;;;;;28.27;14.90;;;;;;;2.08;89.44;100119.38;1766324;80;21468;-68
2020/12/19 04:40:04;;;;;;;26.15;15.85;;;;;;;2.10;89.40;100117.73;1766301;80;20931;-69
2020/12/19 04:42:35;;;;;;;28.98;16.80;;;;;;;2.11;89.35;100113.89;1768583;78;21462;-69
2020/12/19 04:45:05;;;;;;;29.37;16.70;;;;;;;2.12;89.30;100121.28;1786273;79;22034;-70
2020/12/19 04:47:33;;;;;;;25.32;15.83;;;;;;;2.12;89.28;100118.69;1795416;78;21591;-69
2020/12/19 04:50:02;;;;;;;29.35;16.42;;;;;;;2.14;89.24;100114.43;1797730;78;21596;-69
2020/12/19 04:52:30;;;;;;;28.10;16.00;;;;;;;2.13;89.16;100120.46;1795299;78;21259;-69
2020/12/19 04:54:59;;;;;;;27.35;16.65;;;;;;;2.15;89.14;100120.11;1797870;79;21438;-69
2020/12/19 04:57:28;;;;;;;26.00;15.23;;;;;;;2.12;89.10;100119.57;1797497;78;22184;-69
2020/12/19 04:59:56;;;;;;;26.50;15.43;;;;;;;2.14;89.09;100123.55;1797769;78;21565;-68
2020/12/19 05:02:24;;;;;;;24.75;15.15;;;;;;;2.17;89.07;100123.67;1795437;79;21541;-69
2020/12/19 05:04:53;;;;;;;27.85;15.23;;;;;;;2.19;88.99;100125.93;1797633;79;21643;-70
2020/12/19 05:07:24;;;;;;;27.10;15.85;;;;;;;2.18;88.95;100130.24;1794731;78;20971;-67
2020/12/19 05:09:52;;;;;;;24.23;14.73;;;;;;;2.15;88.87;100122.72;1797701;78;21991;-68
2020/12/19 05:12:21;;;;;;;24.25;14.05;;;;;;;2.14;88.82;100122.23;1797988;77;20945;-70
2020/12/19 05:14:50;;;;;;;24.75;14.78;;;;;;;2.13;88.76;100123.06;1803941;79;20899;-69
2020/12/19 05:17:18;;;;;;;29.57;15.72;;;;;;;2.11;88.72;100123.00;1803759;79;21473;-69
2020/12/19 05:19:53;;;;;;;26.75;15.38;;;;;;;2.09;88.68;100131.16;1775765;79;20907;-68
2020/12/19 05:22:27;;;;;;;24.87;14.45;;;;;;;2.06;88.66;100131.44;1802071;79;21154;-69
2020/12/19 05:24:55;;;;;;;26.57;15.78;;;;;;;2.06;88.62;100139.24;1744941;81;21136;-70
2020/12/19 05:27:23;;;;;;;29.52;16.67;;;;;;;2.04;88.60;100138.28;1772567;80;21045;-70
2020/12/19 05:29:52;;;;;;;27.60;16.48;;;;;;;2.02;88.60;100137.33;1744890;81;21029;-70
2020/12/19 05:32:21;;;;;;;27.20;15.60;;;;;;;2.01;88.62;100137.74;1772453;79;20914;-70
2020/12/19 05:34:51;;;;;;;26.57;14.60;;;;;;;2.02;88.64;100138.63;1745476;81;22184;-70
2020/12/19 05:37:20;;;;;;;27.07;15.68;;;;;;;2.04;88.65;100143.08;1772444;81;21477;-69
2020/12/19 05:39:53;;;;;;;27.13;16.05;;;;;;;2.07;88.64;100144.92;1772470;81;21485;-69
2020/12/19 05:42:25;;;;;;;25.55;15.45;;;;;;;2.08;88.65;100151.91;1773275;79;20875;-70
2020/12/19 05:44:53;;;;;;;28.32;15.75;;;;;;;2.08;88.65;100146.70;1774701;79;21563;-70
2020/12/19 05:47:22;;;;;;;27.70;15.32;;;;;;;2.09;88.66;100148.07;1774710;79;21190;-70
2020/12/19 05:49:50;;;;;;;27.15;15.20;;;;;;;2.12;88.66;100144.71;1772604;79;21500;-70
2020/12/19 05:52:19;;;;;;;26.35;14.60;;;;;;;2.14;88.64;100147.86;1772358;81;21069;-69
2020/12/19 05:54:48;;;;;;;27.75;15.30;;;;;;;2.16;88.60;100155.73;1772439;79;21046;-69
2020/12/19 05:57:16;;;;;;;25.90;14.58;;;;;;;2.17;88.61;100145.80;1774639;79;20935;-69
2020/12/19 05:59:45;;;;;;;24.52;14.80;;;;;;;2.20;88.59;100152.44;1772448;81;22355;-69
2020/12/19 06:02:15;;;;;;;26.45;15.32;;;;;;;2.25;88.56;100166.95;1772418;79;20939;-69
2020/12/19 06:04:45;;;;;;;27.15;16.40;;;;;;;2.27;88.50;100168.80;1803829;78;21757;-70
2020/12/19 06:07:13;;;;;;;25.57;16.42;;;;;;;2.29;88.43;100170.16;1749303;79;21055;-69
2020/12/19 06:09:42;;;;;;;26.40;15.58;;;;;;;2.28;88.41;100175.78;1804386;78;20911;-70
2020/12/19 06:12:16;;;;;;;24.20;13.93;;;;;;;2.27;88.35;100171.81;1804202;78;22143;-70
2020/12/19 06:14:49;;;;;;;25.35;14.63;;;;;;;2.28;88.34;100167.08;1776809;79;20950;-70
2020/12/19 06:17:33;;;;;;;26.70;15.50;;;;;;;2.29;88.30;100172.35;1772499;79;20902;-70
2020/12/19 06:20:02;;;;;;;27.77;14.87;;;;;;;2.30;88.25;100177.15;1774543;79;21488;-70
2020/12/19 06:22:32;;;;;;;27.48;15.55;;;;;;;2.30;88.21;100178.03;1789726;79;20907;-69
2020/12/19 06:25:00;;;;;;;31.02;16.65;;;;;;;2.30;88.25;100183.25;1804167;79;21429;-69
2020/12/19 06:27:37;;;;;;;32.73;16.85;;;;;;;2.34;88.19;100186.88;1802956;79;21615;-70
2020/12/19 06:30:05;;;;;;;28.62;16.05;;;;;;;2.35;88.16;100177.83;1796850;79;21612;-70
2020/12/19 06:32:34;;;;;;;30.57;16.80;;;;;;;2.37;88.13;100189.64;1772279;79;21596;-70
2020/12/19 06:35:11;;;;;;;31.17;16.48;;;;;;;2.38;88.10;100189.70;1772542;81;21059;-61
2020/12/19 06:37:41;;;;;;;31.12;16.62;;;;;;;2.37;88.05;100197.03;1772451;79;21195;-71
2020/12/19 06:40:20;;;;;;;34.05;18.62;;;;;;;2.38;88.05;100191.42;1774130;79;21079;-68
2020/12/19 06:43:12;;;;;;;32.95;17.75;;;;;;;2.40;88.02;100198.47;1771391;79;21040;-69
2020/12/19 06:45:40;;;;;;;34.08;17.95;;;;;;;2.40;88.03;100198.47;1770964;81;21050;-70
2020/12/19 06:48:31;;;;;;;32.13;17.27;;;;;;;2.41;88.02;100199.36;1774291;79;21485;-70
2020/12/19 06:51:04;;;;;;;32.55;18.15;;;;;;;2.40;88.01;100198.88;1803613;78;22233;-70
2020/12/19 06:53:37;;;;;;;30.23;17.25;;;;;;;2.43;88.00;100200.31;1804058;78;21493;-69
2020/12/19 06:56:13;;;;;;;28.98;17.12;;;;;;;2.45;87.99;100197.36;1774467;78;21693;-70
2020/12/19 06:58:41;;;;;;;29.67;16.48;;;;;;;2.46;87.98;100204.35;1762452;79;21508;-70
2020/12/19 07:01:28;;;;;;;28.70;15.18;;;;;;;2.46;87.95;100200.45;1772658;79;21037;-70
2020/12/19 07:03:57;;;;;;;29.98;15.63;;;;;;;2.48;87.94;100198.80;1691276;83;22116;-69
2020/12/19 07:06:26;;;;;;;30.02;14.75;;;;;;;2.51;87.92;100202.42;1666166;84;20986;-70
2020/12/19 07:08:54;;;;;;;28.95;16.20;;;;;;;2.52;87.87;100199.41;1666656;84;21107;-70
2020/12/19 07:11:39;;;;;;;23.83;14.68;;;;;;;2.54;87.83;100204.27;1675640;84;21143;-70
2020/12/19 07:14:15;;;;;;;26.07;13.98;;;;;;;2.53;87.79;100202.08;1675022;83;21249;-70
2020/12/19 07:16:50;;;;;;;26.48;14.45;;;;;;;2.55;87.78;100202.55;1717922;81;21371;-70
2020/12/19 07:19:25;;;;;;;26.10;15.08;;;;;;;2.56;87.74;100204.33;1674624;83;21167;-70
2020/12/19 07:21:57;;;;;;;26.25;15.05;;;;;;;2.55;87.65;100209.95;1703152;83;21108;-70
2020/12/19 07:24:25;;;;;;;26.02;14.58;;;;;;;2.51;87.61;100210.23;1674305;85;21012;-70
2020/12/19 07:26:54;;;;;;;27.20;15.48;;;;;;;2.51;87.59;100208.93;1703488;82;21094;-70
2020/12/19 07:29:23;;;;;;;24.63;14.35;;;;;;;2.51;87.56;100215.86;1677713;85;22593;-70
2020/12/19 07:31:55;;;;;;;26.45;15.58;;;;;;;2.52;87.54;100218.94;1701885;82;21627;-71
2020/12/19 07:34:56;;;;;;;26.25;14.78;;;;;;;2.58;87.54;100218.31;1858313;75;22704;-69
2020/12/19 07:37:25;;;;;;;29.98;15.00;;;;;;;2.55;87.53;100222.09;1798337;78;21652;-70
2020/12/19 07:40:05;;;;;;;27.13;14.73;;;;;;;2.56;87.51;100228.66;1767181;79;21366;-70
2020/12/19 07:42:36;;;;;;;27.42;14.70;;;;;;;2.57;87.47;100223.04;1779007;78;21518;-69
2020/12/19 07:45:04;;;;;;;29.63;16.97;;;;;;;2.61;87.46;100228.86;1798910;78;21044;-69
2020/12/19 07:47:34;;;;;;;26.48;15.32;;;;;;;2.64;87.47;100234.20;1767088;79;20973;-70
2020/12/19 07:50:07;;;;;;;26.42;14.83;;;;;;;2.66;87.48;100229.94;1790068;78;20923;-69
2020/12/19 07:52:35;;;;;;;28.83;15.80;;;;;;;2.69;87.47;100233.98;1780040;78;21984;-70
2020/12/19 07:55:04;;;;;;;29.07;16.97;;;;;;;2.72;87.44;100231.09;1764606;79;21555;-70
2020/12/19 07:57:33;;;;;;;40.75;21.42;;;;;;;2.74;87.37;100229.85;1765297;79;21099;-69
2020/12/19 08:00:03;;;;;;;50.40;23.85;;;;;;;2.73;87.35;100228.07;1779528;79;21136;-70
2020/12/19 08:02:38;;;;;;;36.88;19.10;;;;;;;2.72;87.32;100234.11;1772324;79;21139;-70
2020/12/19 08:05:06;;;;;;;32.08;17.87;;;;;;;2.71;87.36;100236.23;1770257;80;21196;-71
2020/12/19 08:07:37;;;;;;;31.57;19.27;;;;;;;2.69;87.34;100237.47;1767064;80;21228;-71
2020/12/19 08:10:13;;;;;;;32.03;17.48;;;;;;;2.68;87.34;100234.80;1739562;79;21119;-71
2020/12/19 08:12:41;;;;;;;29.07;16.00;;;;;;;2.66;87.37;100235.16;1771222;79;20989;-71
2020/12/19 08:15:20;;;;;;;27.95;15.28;;;;;;;2.67;87.41;100242.14;1768343;79;21193;-72
2020/12/19 08:17:58;;;;;;;26.60;15.50;;;;;;;2.64;87.41;100238.10;1768455;79;22063;-73
2020/12/19 08:20:38;;;;;;;34.23;18.42;;;;;;;2.62;87.47;100233.24;1745136;81;21077;-72
2020/12/19 08:23:08;;;;;;;34.55;18.70;;;;;;;2.65;87.56;100232.06;1753942;79;21075;-72
2020/12/19 08:25:36;;;;;;;32.63;16.95;;;;;;;2.68;87.63;100233.09;1761823;80;20952;-72
2020/12/19 08:28:05;;;;;;;28.02;16.42;;;;;;;2.70;87.68;100228.83;1760911;80;20977;-71
2020/12/19 08:30:34;;;;;;;26.05;15.85;;;;;;;2.72;87.72;100228.89;1753850;80;22112;-71
2020/12/19 08:33:10;;;;;;;26.12;16.05;;;;;;;2.72;87.72;100228.89;1755554;79;21086;-69
2020/12/19 08:35:43;;;;;;;29.02;17.92;;;;;;;2.74;87.78;100231.16;1755305;79;21080;-71
2020/12/19 08:41:02;;;;;;;30.17;18.23;;;;;;;2.82;87.95;100228.45;1809884;78;22795;-69
2020/12/19 08:43:36;;;;;;;30.40;16.97;;;;;;;2.80;87.95;100224.48;1800605;79;21564;-70
2020/12/19 08:46:12;;;;;;;26.97;15.95;;;;;;;2.84;87.96;100221.62;1785893;79;21134;-69
2020/12/19 08:48:41;;;;;;;25.90;15.75;;;;;;;2.85;87.94;100222.10;1798540;79;20895;-71
2020/12/19 08:51:14;;;;;;;28.98;17.30;;;;;;;2.89;87.99;100221.40;1788160;78;21489;-72
2020/12/19 08:53:42;;;;;;;27.67;16.60;;;;;;;2.93;87.97;100218.09;1793570;79;21057;-71
2020/12/19 08:56:18;;;;;;;24.37;14.95;;;;;;;2.96;87.96;100216.03;1789067;79;20983;-72
2020/12/19 08:58:53;;;;;;;25.12;15.72;;;;;;;2.99;87.90;100217.45;1797534;78;22074;-63
2020/12/19 09:01:21;;;;;;;26.05;15.40;;;;;;;3.00;87.88;100221.84;1799469;78;20947;-73
2020/12/19 09:03:49;;;;;;;23.05;14.58;;;;;;;2.99;87.87;100220.95;1788843;79;21636;-73
2020/12/19 09:06:18;;;;;;;27.45;15.53;;;;;;;2.98;87.86;100223.08;1799929;78;20977;-70
2020/12/19 09:08:48;;;;;;;25.80;14.95;;;;;;;2.98;87.86;100220.48;1782768;78;20982;-68
2020/12/19 09:11:31;;;;;;;26.37;14.60;;;;;;;2.97;87.84;100218.70;1801957;79;22158;-70
2020/12/19 09:14:12;;;;;;;18.52;10.90;;;;;;;2.99;87.85;100223.55;1787450;79;21584;-70
2020/12/19 09:16:53;;;;;;;22.40;13.40;;;;;;;2.98;87.84;100216.56;1790357;78;21053;-71
2020/12/19 09:19:22;;;;;;;22.70;13.88;;;;;;;3.01;87.91;100214.08;1793120;79;21088;-71
2020/12/19 09:22:05;;;;;;;23.75;14.73;;;;;;;3.05;87.94;100207.28;1785261;80;21022;-72
2020/12/19 09:24:35;;;;;;;23.27;14.50;;;;;;;3.06;87.91;100215.16;1785364;80;22081;-71
2020/12/19 09:27:04;;;;;;;24.52;14.13;;;;;;;3.08;87.91;100212.20;1785111;80;20958;-72
2020/12/19 09:29:33;;;;;;;21.62;14.05;;;;;;;3.12;87.94;100208.89;1720822;83;21530;-72
2020/12/19 09:32:03;;;;;;;23.92;14.47;;;;;;;3.13;87.92;100206.76;1719266;82;21472;-71
2020/12/19 09:34:31;;;;;;;25.37;14.60;;;;;;;3.16;87.92;100203.38;1728043;82;21488;-65
2020/12/19 09:37:00;;;;;;;25.57;15.13;;;;;;;3.19;87.91;100206.11;1750357;81;21210;-71
2020/12/19 09:39:28;;;;;;;23.42;13.80;;;;;;;3.20;87.86;100203.09;1747909;81;21069;-72
2020/12/19 09:41:57;;;;;;;25.25;14.43;;;;;;;3.20;87.83;100203.09;1707024;83;22000;-72
2020/12/19 09:44:25;;;;;;;26.07;15.50;;;;;;;3.22;87.84;100204.04;1734569;82;21579;-72
2020/12/19 09:46:55;;;;;;;26.95;15.55;;;;;;;3.24;87.86;100198.47;1755512;80;21002;-72
2020/12/19 09:49:25;;;;;;;27.27;17.05;;;;;;;3.25;87.83;100198.53;1744512;82;22137;-72
2020/12/19 09:51:53;;;;;;;30.40;17.02;;;;;;;3.26;87.81;100195.51;1732829;82;21002;-72
2020/12/19 09:54:22;;;;;;;24.50;14.58;;;;;;;3.27;87.81;100196.87;1764417;81;21513;-71
2020/12/19 09:56:51;;;;;;;25.23;14.60;;;;;;;3.27;87.76;100194.27;1745055;82;21509;-72
2020/12/19 09:59:22;;;;;;;27.58;14.75;;;;;;;3.26;87.69;100188.58;1737841;82;20931;-73
2020/12/19 10:01:57;;;;;;;24.45;15.08;;;;;;;3.24;87.66;100189.34;1735085;82;21199;-72
2020/12/19 10:04:25;;;;;;;26.23;14.43;;;;;;;3.24;87.66;100189.34;1716413;82;21640;-70
2020/12/19 10:06:54;;;;;;;24.82;14.38;;;;;;;3.25;87.68;100185.91;1732134;81;21015;-71
2020/12/19 10:09:24;;;;;;;26.93;16.82;;;;;;;3.28;87.67;100184.31;1739020;82;21093;-71
2020/12/19 10:11:56;;;;;;;27.32;16.60;;;;;;;3.32;87.61;100184.05;1739049;82;21172;-71
2020/12/19 10:14:25;;;;;;;20.82;11.80;;;;;;;3.36;87.62;100182.03;1737074;82;22274;-69
2020/12/19 10:16:54;;;;;;;27.52;16.07;;;;;;;3.40;87.60;100177.00;1736646;81;21196;-61
2020/12/19 10:19:24;;;;;;;23.85;14.23;;;;;;;3.45;87.53;100183.28;1739396;80;21051;-74
2020/12/19 10:21:53;;;;;;;23.55;13.85;;;;;;;3.49;87.44;100168.64;1727496;82;21038;-76
2020/12/19 10:24:23;;;;;;;22.73;13.28;;;;;;;3.50;87.33;100170.41;1720276;82;21505;-75
2020/12/19 10:26:52;;;;;;;26.12;14.25;;;;;;;3.52;87.25;100165.25;1750420;81;21940;-73
2020/12/19 10:29:21;;;;;;;24.52;14.28;;;;;;;3.51;87.13;100167.39;1744109;82;21557;-73
2020/12/19 10:31:49;;;;;;;22.13;13.03;;;;;;;3.52;87.08;100169.17;1781132;79;21161;-73
2020/12/19 10:34:17;;;;;;;19.87;12.53;;;;;;;3.56;86.99;100169.34;1772996;80;21557;-73
2020/12/19 10:36:51;;;;;;;23.80;13.90;;;;;;;3.60;86.88;100164.71;1770636;79;20971;-73
2020/12/19 10:39:19;;;;;;;;;;;;;;;3.65;86.81;100162.27;1775734;79;21430;-74
2020/12/19 10:41:49;;;;;;;21.95;13.72;;;;;;;3.70;86.81;100160.73;1772863;81;20628;-74
2020/12/19 10:44:17;;;;;;;20.48;12.43;;;;;;;3.75;86.82;100156.14;1773177;80;20984;-73
2020/12/19 10:46:46;;;;;;;20.02;11.95;;;;;;;3.84;86.86;100154.33;1773768;80;21555;-71
2020/12/19 10:49:14;;;;;;;23.60;12.75;;;;;;;3.99;86.85;100153.98;1773853;81;21028;-70
2020/12/19 10:51:43;;;;;;;20.72;11.88;;;;;;;4.17;86.83;100157.67;1773722;80;21212;-73
2020/12/19 10:54:13;;;;;;;22.25;12.23;;;;;;;4.35;86.77;100146.17;1773804;80;21126;-73
2020/12/19 10:56:43;;;;;;;23.10;12.35;;;;;;;4.64;86.92;100146.27;1770009;81;21146;-75
2020/12/19 10:59:11;;;;;;;18.17;11.10;;;;;;;4.91;86.55;100143.69;1773008;80;21874;-72
2020/12/19 11:01:40;;;;;;;21.82;12.18;;;;;;;5.15;86.29;100137.04;1773002;80;20957;-73
2020/12/19 11:04:08;;;;;;;19.70;12.82;;;;;;;5.36;85.96;100141.23;1774986;79;21253;-72
2020/12/19 11:06:37;;;;;;;20.00;12.93;;;;;;;5.57;85.53;100130.52;1793998;79;21073;-73
2020/12/19 11:09:06;;;;;;;19.50;12.63;;;;;;;5.75;85.13;100124.95;1773745;80;21093;-73
2020/12/19 11:11:34;;;;;;;18.62;11.68;;;;;;;5.95;84.74;100130.78;1773821;81;21583;-74
2020/12/19 11:14:03;;;;;;;16.87;11.10;;;;;;;6.14;84.40;100122.59;1773814;80;21077;-74
2020/12/19 11:16:32;;;;;;;16.82;11.33;;;;;;;6.35;83.93;100124.92;1773912;80;22100;-73
2020/12/19 11:19:01;;;;;;;17.67;11.18;;;;;;;6.56;83.47;100125.89;1773797;81;21508;-75
2020/12/19 11:21:30;;;;;;;16.05;10.50;;;;;;;6.77;83.01;100125.15;1773787;80;20887;-72
2020/12/19 11:23:59;;;;;;;14.95;9.25;;;;;;;7.00;82.44;100122.19;1773700;81;21009;-74
2020/12/19 11:26:32;;;;;;;16.30;10.25;;;;;;;7.21;82.01;100113.11;1773846;80;20950;-74
2020/12/19 11:29:01;;;;;;;19.27;10.82;;;;;;;7.43;81.29;100116.20;1773824;80;21324;-73
2020/12/19 11:31:30;;;;;;;15.10;9.78;;;;;;;7.65;80.73;100111.89;1773741;80;21042;-72
2020/12/19 11:33:58;;;;;;;16.15;9.53;;;;;;;7.86;80.07;100115.38;1773799;80;21471;-72